Time;durP1;ratioP1;P1;durP2;ratioP2;P2;SDS_P1;SDS_P2;PMS_P1;PMS_P2;Temp;Humidity;BMP_temperature;BMP_pressure;BME280_temperature;BME280_humidity;BME280_pressure;Samples;Min_cycle;Max_cycle;Signal;HPM_P1;HPM_P2
2022/12/31 00:00:07;;;;;;;3.50;1.80;;;13.00;99.90;;;;;;5050235;28;20201;-62
2022/12/31 00:02:34;;;;;;;1.80;1.47;;;13.00;99.90;;;;;;5048695;28;20327;-62
2022/12/31 00:05:03;;;;;;;1.50;1.27;;;13.00;99.90;;;;;;5067959;28;20292;-61
2022/12/31 00:07:30;;;;;;;2.13;1.27;;;13.00;99.90;;;;;;5073512;28;20680;-62
2022/12/31 00:09:56;;;;;;;2.20;1.50;;;13.00;99.90;;;;;;5054726;28;20221;-61
2022/12/31 00:12:24;;;;;;;1.30;1.20;;;13.00;99.90;;;;;;5072488;28;20227;-62
2022/12/31 00:14:50;;;;;;;1.90;1.40;;;13.00;99.90;;;;;;5069961;28;20775;-64
2022/12/31 00:17:17;;;;;;;3.03;1.43;;;13.00;99.90;;;;;;5034824;28;20209;-62
2022/12/31 00:19:44;;;;;;;1.80;1.53;;;13.00;99.90;;;;;;5065967;28;20955;-62
2022/12/31 00:22:11;;;;;;;2.40;1.40;;;13.00;99.90;;;;;;5064099;28;20207;-64
2022/12/31 00:24:38;;;;;;;1.70;1.50;;;13.00;99.90;;;;;;5060053;28;20202;-61
2022/12/31 00:27:04;;;;;;;1.50;1.40;;;12.90;99.90;;;;;;5058768;28;20301;-61
2022/12/31 00:29:31;;;;;;;1.50;1.40;;;13.00;99.90;;;;;;5070343;28;20215;-61
2022/12/31 00:31:58;;;;;;;1.67;1.30;;;12.90;99.90;;;;;;5056882;28;20210;-61
2022/12/31 00:34:25;;;;;;;2.30;1.50;;;12.90;99.90;;;;;;5075191;28;20213;-61
2022/12/31 00:36:51;;;;;;;2.30;1.60;;;12.90;99.90;;;;;;5074701;28;20220;-62
2022/12/31 00:39:18;;;;;;;2.90;1.67;;;12.90;99.90;;;;;;5076352;28;20559;-61
2022/12/31 00:41:45;;;;;;;2.43;1.50;;;12.90;99.90;;;;;;5077162;28;20292;-61
2022/12/31 00:44:12;;;;;;;2.20;1.40;;;13.00;99.90;;;;;;5076028;28;20202;-63
2022/12/31 00:46:39;;;;;;;2.63;1.53;;;13.00;99.90;;;;;;5078824;28;20346;-61
2022/12/31 00:49:05;;;;;;;1.53;1.43;;;13.00;99.90;;;;;;5074705;28;20266;-61
2022/12/31 00:51:32;;;;;;;3.00;1.50;;;13.10;99.90;;;;;;5059927;28;20249;-64
2022/12/31 00:53:59;;;;;;;1.47;1.00;;;13.10;99.90;;;;;;5073002;28;20307;-62
2022/12/31 00:56:28;;;;;;;0.63;0.50;;;13.00;99.90;;;;;;5074662;28;20212;-62
2022/12/31 00:58:56;;;;;;;1.30;0.50;;;12.60;99.90;;;;;;5066153;28;20840;-61
2022/12/31 01:01:24;;;;;;;0.40;0.33;;;12.60;99.90;;;;;;5067362;28;20332;-61
2022/12/31 01:03:56;;;;;;;0.30;0.30;;;12.50;99.90;;;;;;5050740;28;20275;-61
2022/12/31 01:06:23;;;;;;;0.83;0.50;;;12.40;99.90;;;;;;5059927;28;20210;-61
2022/12/31 01:08:51;;;;;;;0.87;0.40;;;12.40;99.90;;;;;;5049906;28;20246;-61
2022/12/31 01:11:20;;;;;;;0.63;0.43;;;12.30;99.90;;;;;;5073631;28;20229;-62
2022/12/31 01:13:55;;;;;;;2.17;0.67;;;12.30;99.90;;;;;;5070552;28;20270;-62
2022/12/31 01:16:26;;;;;;;1.50;0.60;;;12.40;99.90;;;;;;5072095;28;20731;-61
2022/12/31 01:18:54;;;;;;;2.50;0.80;;;12.40;99.90;;;;;;5076652;28;20680;-62
2022/12/31 01:21:21;;;;;;;0.63;0.50;;;12.40;99.90;;;;;;5061014;28;20683;-61
2022/12/31 01:23:48;;;;;;;0.80;0.30;;;12.40;99.90;;;;;;5057813;28;20198;-62
2022/12/31 01:26:16;;;;;;;0.53;0.50;;;12.30;99.90;;;;;;5080489;28;20225;-61
2022/12/31 01:28:42;;;;;;;1.33;0.50;;;12.30;99.90;;;;;;5059055;28;20214;-61
2022/12/31 01:31:12;;;;;;;0.90;0.50;;;12.40;99.90;;;;;;5078921;28;20304;-62
2022/12/31 01:33:40;;;;;;;0.60;0.50;;;12.40;99.90;;;;;;5077716;28;20202;-61
2022/12/31 01:36:18;;;;;;;1.20;0.53;;;12.30;99.90;;;;;;5066556;28;20231;-62
2022/12/31 01:38:52;;;;;;;0.50;0.33;;;12.20;99.90;;;;;;5060040;28;20205;-67
2022/12/31 01:41:23;;;;;;;1.30;0.60;;;12.20;99.90;;;;;;5077847;28;20567;-63
2022/12/31 01:43:56;;;;;;;0.90;0.60;;;12.30;99.90;;;;;;5077003;28;20292;-61
2022/12/31 01:46:25;;;;;;;1.17;0.40;;;12.30;99.90;;;;;;5077021;28;20224;-62
2022/12/31 01:49:08;;;;;;;0.90;0.50;;;12.30;99.90;;;;;;5075605;28;20264;-62
2022/12/31 01:51:36;;;;;;;1.77;0.80;;;12.30;99.90;;;;;;5075121;28;20207;-61
2022/12/31 01:54:07;;;;;;;1.47;0.70;;;12.40;99.90;;;;;;5059061;28;20215;-63
2022/12/31 01:56:35;;;;;;;1.47;0.70;;;12.30;99.90;;;;;;5077836;28;20633;-61
2022/12/31 01:59:05;;;;;;;1.23;0.63;;;12.30;99.90;;;;;;5076768;28;20293;-61
2022/12/31 02:01:34;;;;;;;1.93;0.60;;;12.20;99.90;;;;;;5076266;28;20288;-61
2022/12/31 02:04:07;;;;;;;2.87;0.53;;;12.10;99.90;;;;;;5056927;28;20553;-61
2022/12/31 02:06:40;;;;;;;0.77;0.47;;;12.20;99.90;;;;;;5075953;28;20289;-62
2022/12/31 02:09:07;;;;;;;1.97;0.80;;;12.20;99.90;;;;;;5056081;28;20241;-61
2022/12/31 02:11:36;;;;;;;3.43;0.90;;;12.20;99.90;;;;;;5075745;28;20226;-62
2022/12/31 02:14:15;;;;;;;3.10;1.00;;;12.10;99.90;;;;;;5076469;28;20297;-61
2022/12/31 02:17:05;;;;;;;2.73;1.10;;;12.10;99.90;;;;;;5077094;28;20225;-61
2022/12/31 02:19:53;;;;;;;1.80;0.80;;;12.10;99.90;;;;;;5074974;28;20211;-61
2022/12/31 02:22:35;;;;;;;1.40;1.30;;;12.00;99.90;;;;;;5076046;28;20229;-62
2022/12/31 02:25:17;;;;;;;1.40;0.80;;;12.00;99.90;;;;;;5075518;28;20566;-63
2022/12/31 02:28:10;;;;;;;3.07;1.03;;;12.00;99.90;;;;;;5070345;28;20202;-61
2022/12/31 02:30:39;;;;;;;0.70;0.70;;;12.00;99.90;;;;;;5039728;28;20608;-62
2022/12/31 02:33:31;;;;;;;3.20;0.97;;;12.00;99.90;;;;;;5063311;28;20198;-61
2022/12/31 02:36:16;;;;;;;0.97;0.87;;;12.10;99.90;;;;;;5066707;28;20231;-61
2022/12/31 02:38:46;;;;;;;1.07;0.90;;;12.20;99.90;;;;;;5052835;28;20225;-62
2022/12/31 02:41:48;;;;;;;1.17;0.80;;;12.20;99.90;;;;;;5072799;28;20655;-62
2022/12/31 02:44:19;;;;;;;2.10;0.70;;;12.20;99.90;;;;;;5055659;28;20292;-62
2022/12/31 02:47:08;;;;;;;1.43;0.80;;;12.10;99.90;;;;;;5072257;28;20811;-62
2022/12/31 02:49:52;;;;;;;2.00;0.77;;;12.10;99.90;;;;;;5071669;28;20225;-61
2022/12/31 02:53:13;;;;;;;2.83;0.80;;;12.00;99.90;;;;;;5074207;28;20301;-62
2022/12/31 02:56:00;;;;;;;1.20;1.00;;;12.10;99.90;;;;;;5040334;28;20214;-61
2022/12/31 03:02:15;;;;;;;1.20;1.10;;;12.10;99.90;;;;;;5064326;28;20725;-66
2022/12/31 03:04:51;;;;;;;1.70;1.00;;;12.00;99.90;;;;;;5068329;28;20251;-61
2022/12/31 03:07:20;;;;;;;3.37;1.30;;;12.00;99.90;;;;;;5062734;28;20664;-61
2022/12/31 03:09:47;;;;;;;1.30;1.00;;;12.00;99.90;;;;;;5068809;28;20244;-61
2022/12/31 03:15:01;;;;;;;2.37;1.10;;;12.00;99.90;;;;;;5070129;28;20252;-61
2022/12/31 03:17:27;;;;;;;2.53;1.10;;;12.00;99.90;;;;;;5062677;28;20194;-61
2022/12/31 03:22:42;;;;;;;1.40;1.27;;;11.90;99.90;;;;;;5065879;28;20237;-62
2022/12/31 03:25:34;;;;;;;2.73;1.27;;;12.00;99.90;;;;;;5069846;28;20296;-61
2022/12/31 03:28:03;;;;;;;1.97;1.20;;;12.00;99.90;;;;;;5066962;28;20208;-61
2022/12/31 03:30:30;;;;;;;1.77;1.30;;;11.90;99.90;;;;;;5070670;28;20743;-61
2022/12/31 03:32:57;;;;;;;2.90;1.30;;;11.90;99.90;;;;;;5063923;28;20200;-62
2022/12/31 03:35:28;;;;;;;2.20;1.00;;;11.90;99.90;;;;;;5071072;28;20289;-61
2022/12/31 03:37:55;;;;;;;1.50;1.20;;;11.90;99.90;;;;;;5050954;28;20209;-62
2022/12/31 03:40:25;;;;;;;1.20;1.10;;;11.90;99.90;;;;;;5066989;28;20649;-61
2022/12/31 03:42:52;;;;;;;4.23;1.20;;;11.90;99.90;;;;;;5069449;28;20948;-61
2022/12/31 03:45:19;;;;;;;1.27;1.17;;;11.90;99.90;;;;;;5068269;28;20293;-61
2022/12/31 03:47:46;;;;;;;1.50;1.40;;;11.90;99.90;;;;;;5067313;28;20207;-61
2022/12/31 03:50:15;;;;;;;1.30;1.20;;;11.90;99.90;;;;;;5057411;28;20663;-61
2022/12/31 03:52:41;;;;;;;1.90;1.50;;;11.90;99.90;;;;;;5070001;28;20194;-61
2022/12/31 03:55:09;;;;;;;1.40;1.30;;;12.00;99.90;;;;;;5068803;28;20333;-61
2022/12/31 03:57:37;;;;;;;1.90;1.20;;;12.10;99.90;;;;;;5065867;28;20842;-62
2022/12/31 04:00:07;;;;;;;1.50;1.40;;;12.20;99.90;;;;;;5066850;28;20197;-62
2022/12/31 04:02:34;;;;;;;2.50;1.30;;;12.20;99.90;;;;;;5053070;28;20207;-62
2022/12/31 04:05:01;;;;;;;2.80;1.53;;;12.10;99.90;;;;;;5067720;28;20195;-61
2022/12/31 04:07:28;;;;;;;2.47;1.53;;;12.10;99.90;;;;;;5066272;28;20289;-61
2022/12/31 04:09:54;;;;;;;5.30;1.67;;;12.10;99.90;;;;;;5066094;28;20257;-61
2022/12/31 04:12:21;;;;;;;1.63;1.37;;;12.00;99.90;;;;;;5048504;28;20223;-62
2022/12/31 04:14:48;;;;;;;1.67;1.40;;;12.00;99.90;;;;;;5044116;28;20198;-61
2022/12/31 04:17:15;;;;;;;1.67;1.30;;;12.10;99.90;;;;;;5058943;28;20657;-61
2022/12/31 04:19:42;;;;;;;1.60;1.43;;;12.10;99.90;;;;;;5040431;28;20320;-61
2022/12/31 04:22:08;;;;;;;1.60;1.50;;;12.10;99.90;;;;;;5069434;28;20220;-61
2022/12/31 04:24:35;;;;;;;1.63;1.50;;;12.00;99.90;;;;;;5061744;28;20575;-62
2022/12/31 04:27:02;;;;;;;1.60;1.50;;;12.10;99.90;;;;;;5055114;28;20599;-61
2022/12/31 04:29:34;;;;;;;1.70;1.50;;;12.10;99.90;;;;;;5071675;28;20306;-62
2022/12/31 04:32:01;;;;;;;3.03;2.00;;;12.20;99.90;;;;;;5073294;28;20209;-62
2022/12/31 04:34:28;;;;;;;2.87;1.97;;;12.20;99.90;;;;;;5075921;28;20191;-61
2022/12/31 04:36:54;;;;;;;1.83;1.57;;;12.20;99.90;;;;;;5075305;28;20206;-61
2022/12/31 04:39:21;;;;;;;1.80;1.50;;;12.10;99.90;;;;;;5075605;28;20299;-62
2022/12/31 04:41:48;;;;;;;2.00;1.63;;;12.20;99.90;;;;;;5076163;28;20206;-61
2022/12/31 04:44:15;;;;;;;2.17;1.90;;;12.20;99.90;;;;;;5088361;28;20216;-61
2022/12/31 04:46:42;;;;;;;1.77;1.67;;;12.20;99.90;;;;;;5073182;28;20216;-62
2022/12/31 04:49:09;;;;;;;2.40;1.30;;;12.20;99.90;;;;;;5073434;28;20205;-61
2022/12/31 04:51:36;;;;;;;1.77;1.60;;;12.10;99.90;;;;;;5075849;28;20252;-61
2022/12/31 04:54:03;;;;;;;2.30;1.30;;;12.10;99.90;;;;;;5075592;28;20649;-62
2022/12/31 04:56:31;;;;;;;2.60;1.40;;;12.10;99.90;;;;;;5072983;28;20524;-63
2022/12/31 04:58:58;;;;;;;1.80;1.33;;;12.00;99.90;;;;;;5070481;28;20200;-61
2022/12/31 05:01:24;;;;;;;1.30;1.20;;;12.10;99.90;;;;;;5074284;28;20299;-61
2022/12/31 05:03:52;;;;;;;1.37;1.00;;;12.00;99.90;;;;;;5073193;28;20300;-61
2022/12/31 05:06:21;;;;;;;1.40;1.20;;;12.20;99.90;;;;;;5072539;28;20272;-62
2022/12/31 05:08:48;;;;;;;1.60;1.10;;;12.20;99.90;;;;;;5074393;28;20645;-61
2022/12/31 05:11:16;;;;;;;2.17;1.10;;;12.20;99.90;;;;;;5075345;28;20380;-61
2022/12/31 05:13:43;;;;;;;1.40;1.20;;;12.00;99.90;;;;;;5079090;28;20200;-61
2022/12/31 05:16:10;;;;;;;0.80;0.63;;;12.00;99.90;;;;;;5072509;28;20200;-61
2022/12/31 05:18:37;;;;;;;0.50;0.50;;;12.00;99.90;;;;;;5071886;28;20197;-62
2022/12/31 05:21:05;;;;;;;1.10;0.60;;;12.10;99.90;;;;;;5074482;28;20209;-62
2022/12/31 05:23:32;;;;;;;1.17;0.67;;;12.10;99.90;;;;;;5079053;28;20198;-61
2022/12/31 05:26:00;;;;;;;1.20;0.60;;;12.10;99.90;;;;;;5075250;28;20237;-61
2022/12/31 05:28:27;;;;;;;1.23;0.93;;;12.10;99.90;;;;;;5076966;28;20206;-61
2022/12/31 05:30:54;;;;;;;1.23;1.00;;;12.10;99.90;;;;;;5078237;28;20648;-61
2022/12/31 05:33:21;;;;;;;1.20;0.90;;;12.10;99.90;;;;;;5075212;28;20202;-61
2022/12/31 05:35:49;;;;;;;1.30;0.80;;;12.10;99.90;;;;;;5078175;28;20233;-66
2022/12/31 05:38:15;;;;;;;1.17;0.87;;;12.10;99.90;;;;;;5075354;28;20656;-61
2022/12/31 05:40:42;;;;;;;1.10;0.93;;;12.10;99.90;;;;;;5077630;28;20206;-61
2022/12/31 05:43:09;;;;;;;1.10;0.90;;;12.20;99.90;;;;;;5076580;28;20715;-61
2022/12/31 05:45:36;;;;;;;1.37;1.00;;;12.20;99.90;;;;;;5075777;28;20210;-61
2022/12/31 05:48:03;;;;;;;1.57;1.17;;;12.20;99.90;;;;;;5074600;28;20201;-62
2022/12/31 05:50:30;;;;;;;1.67;1.13;;;12.20;99.90;;;;;;5078326;28;20227;-61
2022/12/31 05:52:56;;;;;;;2.63;1.13;;;12.20;99.90;;;;;;5076439;28;20293;-62
2022/12/31 05:55:23;;;;;;;2.07;1.30;;;12.20;99.90;;;;;;5077634;28;20314;-61
2022/12/31 05:57:50;;;;;;;1.47;1.03;;;12.30;99.90;;;;;;5075795;28;20629;-61
2022/12/31 06:00:17;;;;;;;2.97;1.03;;;12.30;99.90;;;;;;5075842;28;20209;-62
2022/12/31 06:02:43;;;;;;;1.97;1.27;;;12.40;99.90;;;;;;5076783;28;20214;-61
2022/12/31 06:05:11;;;;;;;1.73;1.10;;;12.50;99.90;;;;;;5077820;28;20264;-61
2022/12/31 06:07:37;;;;;;;1.23;1.10;;;12.50;99.90;;;;;;5077248;28;20549;-61
2022/12/31 06:10:05;;;;;;;1.73;0.80;;;12.60;99.90;;;;;;5077775;28;20230;-62
2022/12/31 06:12:32;;;;;;;0.90;0.73;;;12.70;99.90;;;;;;5076685;28;20226;-61
2022/12/31 06:14:58;;;;;;;0.97;0.70;;;12.80;99.90;;;;;;5078865;28;20654;-61
2022/12/31 06:17:25;;;;;;;0.97;0.70;;;13.00;99.90;;;;;;5077974;28;20202;-61
2022/12/31 06:19:52;;;;;;;1.10;0.70;;;13.10;99.90;;;;;;5074651;28;20838;-62
2022/12/31 06:22:19;;;;;;;1.37;0.70;;;13.20;99.90;;;;;;5073546;28;20214;-61
2022/12/31 06:24:45;;;;;;;2.53;0.60;;;13.20;99.90;;;;;;5073070;28;20319;-61
2022/12/31 06:27:12;;;;;;;0.53;0.50;;;13.20;99.90;;;;;;5071555;28;20247;-61
2022/12/31 06:29:39;;;;;;;1.60;0.60;;;13.30;99.90;;;;;;5074212;28;20202;-61
2022/12/31 06:32:06;;;;;;;1.80;0.60;;;13.60;99.90;;;;;;5078796;28;20309;-62
2022/12/31 06:34:33;;;;;;;0.43;0.43;;;13.70;99.90;;;;;;5067429;28;20193;-62
2022/12/31 06:37:00;;;;;;;1.17;0.40;;;13.70;99.90;;;;;;5065944;28;20201;-61
2022/12/31 06:39:26;;;;;;;0.67;0.50;;;13.80;99.90;;;;;;5076166;28;20201;-61
2022/12/31 06:41:54;;;;;;;1.70;0.43;;;13.80;99.90;;;;;;5080471;28;20209;-61
2022/12/31 06:44:21;;;;;;;1.80;0.50;;;13.90;99.90;;;;;;5080214;28;20663;-61
2022/12/31 06:46:49;;;;;;;0.90;0.57;;;13.90;99.90;;;;;;5081284;28;20201;-62
2022/12/31 06:49:16;;;;;;;1.20;0.60;;;14.00;99.90;;;;;;5081905;28;20298;-62
2022/12/31 06:51:44;;;;;;;1.63;0.80;;;14.00;99.90;;;;;;5079756;28;20349;-61
2022/12/31 06:54:12;;;;;;;2.20;0.50;;;14.00;99.90;;;;;;5079663;28;20559;-61
2022/12/31 06:56:40;;;;;;;2.60;0.80;;;14.20;99.90;;;;;;5080755;28;20202;-61
2022/12/31 06:59:26;;;;;;;1.63;0.60;;;14.30;99.90;;;;;;5080213;28;20235;-64
2022/12/31 07:02:14;;;;;;;2.43;0.50;;;14.40;99.90;;;;;;5077701;28;20200;-61
2022/12/31 07:05:05;;;;;;;1.67;0.53;;;14.30;99.90;;;;;;5082124;28;20200;-61
2022/12/31 07:07:32;;;;;;;1.53;0.40;;;14.50;99.90;;;;;;5081132;28;20295;-61
2022/12/31 07:10:22;;;;;;;2.80;0.37;;;14.50;99.90;;;;;;5080499;28;20220;-61
2022/12/31 07:13:25;;;;;;;0.80;0.50;;;14.50;99.90;;;;;;5080748;28;20242;-62
2022/12/31 07:16:14;;;;;;;1.60;0.33;;;14.60;99.90;;;;;;5078772;28;20206;-62
2022/12/31 07:19:10;;;;;;;1.87;0.40;;;14.70;99.90;;;;;;5078485;28;20682;-61
2022/12/31 07:21:39;;;;;;;2.73;0.40;;;14.70;99.90;;;;;;5082680;28;20204;-63
2022/12/31 07:24:07;;;;;;;4.53;0.50;;;14.60;99.90;;;;;;5085866;28;20218;-63
2022/12/31 07:26:56;;;;;;;0.50;0.30;;;14.60;99.90;;;;;;5080471;28;20652;-62
2022/12/31 07:29:48;;;;;;;1.90;0.30;;;14.50;99.90;;;;;;5080855;28;20305;-63
2022/12/31 07:32:26;;;;;;;0.73;0.50;;;14.50;99.90;;;;;;5079993;28;20211;-68
2022/12/31 07:34:59;;;;;;;3.13;0.50;;;14.50;99.90;;;;;;5078617;28;20230;-63
2022/12/31 07:37:35;;;;;;;3.20;0.53;;;14.50;99.90;;;;;;5079940;28;20540;-63
2022/12/31 07:40:16;;;;;;;1.70;0.80;;;14.60;99.90;;;;;;5079689;28;20210;-63
2022/12/31 07:43:03;;;;;;;2.53;0.40;;;14.60;99.90;;;;;;5079135;28;20722;-63
2022/12/31 07:45:50;;;;;;;2.23;0.47;;;14.60;99.90;;;;;;5078167;28;20187;-63
2022/12/31 07:48:24;;;;;;;1.77;0.70;;;14.70;99.90;;;;;;4712093;28;10000261;-63
2022/12/31 07:50:53;;;;;;;0.80;0.33;;;14.70;99.90;;;;;;5071268;28;20260;-62
2022/12/31 07:53:21;;;;;;;2.90;0.60;;;14.80;99.90;;;;;;5081447;28;20263;-63
2022/12/31 07:55:56;;;;;;;1.70;0.40;;;15.00;99.90;;;;;;5078447;28;20200;-63
2022/12/31 07:58:31;;;;;;;2.40;0.40;;;15.10;99.90;;;;;;5078998;28;20285;-63
2022/12/31 08:00:59;;;;;;;1.60;0.30;;;15.20;99.90;;;;;;5080426;28;20223;-65
2022/12/31 08:03:39;;;;;;;2.73;0.90;;;15.30;99.90;;;;;;5079193;28;20200;-63
2022/12/31 08:06:23;;;;;;;0.60;0.30;;;15.30;99.90;;;;;;5076879;28;20282;-64
2022/12/31 08:08:56;;;;;;;4.93;1.30;;;15.30;99.90;;;;;;5073461;28;20204;-63
2022/12/31 08:11:34;;;;;;;2.47;0.60;;;15.20;99.90;;;;;;5075558;28;20232;-63
2022/12/31 08:14:01;;;;;;;3.13;0.60;;;15.20;99.90;;;;;;5076221;28;20562;-63
2022/12/31 08:16:29;;;;;;;1.30;0.70;;;15.10;99.90;;;;;;5091779;28;20201;-64
2022/12/31 08:18:56;;;;;;;3.60;0.80;;;15.10;99.90;;;;;;5074789;28;20568;-63
2022/12/31 08:21:49;;;;;;;1.67;0.80;;;14.60;99.90;;;;;;5075291;28;20334;-62
2022/12/31 08:24:24;;;;;;;0.87;0.20;;;14.30;99.90;;;;;;5071259;28;20296;-62
2022/12/31 08:27:14;;;;;;;0.50;0.20;;;14.10;99.90;;;;;;5076010;28;20226;-62
2022/12/31 08:29:52;;;;;;;1.87;1.13;;;14.10;99.90;;;;;;5071746;28;20676;-62
2022/12/31 08:32:31;;;;;;;1.80;0.40;;;14.00;99.90;;;;;;5076179;28;20289;-62
2022/12/31 08:35:13;;;;;;;1.33;0.50;;;14.20;99.90;;;;;;5076979;28;20609;-62
2022/12/31 08:38:15;;;;;;;1.20;0.53;;;14.30;99.90;;;;;;5075019;28;20647;-64
2022/12/31 08:41:10;;;;;;;4.00;0.70;;;14.50;99.90;;;;;;5053748;28;20636;-64
2022/12/31 08:43:56;;;;;;;2.83;0.63;;;14.60;99.90;;;;;;5074809;28;21045;-62
2022/12/31 08:46:33;;;;;;;1.73;0.50;;;14.70;99.90;;;;;;5077207;28;20194;-62
2022/12/31 08:49:00;;;;;;;1.73;0.53;;;14.90;99.90;;;;;;5074488;28;20283;-63
2022/12/31 08:51:27;;;;;;;1.73;0.60;;;15.00;99.90;;;;;;5084494;28;20299;-63
2022/12/31 08:53:54;;;;;;;0.57;0.37;;;15.10;99.90;;;;;;5077289;28;20228;-63
2022/12/31 08:56:42;;;;;;;2.20;0.60;;;15.20;99.90;;;;;;5079419;28;20328;-63
2022/12/31 08:59:21;;;;;;;2.77;0.50;;;15.30;99.90;;;;;;5071285;28;20204;-64
2022/12/31 09:02:06;;;;;;;1.33;0.50;;;15.20;99.90;;;;;;5078261;28;20199;-63
2022/12/31 09:05:22;;;;;;;4.63;0.70;;;15.30;99.90;;;;;;5077197;28;20209;-63
2022/12/31 09:08:13;;;;;;;0.87;0.50;;;15.30;99.90;;;;;;5061940;28;20217;-63
2022/12/31 09:10:49;;;;;;;3.33;0.60;;;15.20;99.90;;;;;;5074461;28;20228;-63
2022/12/31 09:14:09;;;;;;;1.43;0.50;;;15.30;99.90;;;;;;5075354;28;20299;-63
2022/12/31 09:16:44;;;;;;;2.23;0.67;;;15.20;99.90;;;;;;5076484;28;20662;-63
2022/12/31 09:19:11;;;;;;;1.97;0.70;;;15.20;99.90;;;;;;5074387;28;20200;-63
2022/12/31 09:21:43;;;;;;;5.70;0.63;;;15.20;99.90;;;;;;5077107;28;20206;-64
2022/12/31 09:24:14;;;;;;;2.73;0.60;;;15.20;99.90;;;;;;5074845;28;20260;-64
2022/12/31 09:26:53;;;;;;;3.07;0.53;;;15.20;99.90;;;;;;5073068;28;20234;-63
2022/12/31 09:29:38;;;;;;;2.50;0.60;;;15.30;99.90;;;;;;5072133;28;20203;-64
2022/12/31 09:32:24;;;;;;;2.03;0.60;;;15.30;99.90;;;;;;5073896;28;20225;-64
2022/12/31 09:35:08;;;;;;;1.13;0.50;;;15.30;99.90;;;;;;5075903;28;20673;-62
2022/12/31 09:37:54;;;;;;;1.17;0.87;;;15.40;99.90;;;;;;5075871;28;20620;-64
2022/12/31 09:40:27;;;;;;;1.10;0.50;;;15.40;99.90;;;;;;5073616;28;20668;-63
2022/12/31 09:43:16;;;;;;;1.77;0.40;;;15.20;99.90;;;;;;5078113;28;20285;-63
2022/12/31 09:45:43;;;;;;;1.20;0.40;;;15.10;99.90;;;;;;5078796;28;20666;-63
2022/12/31 09:48:25;;;;;;;1.77;0.60;;;15.00;99.90;;;;;;5075029;28;20195;-63
2022/12/31 09:51:13;;;;;;;1.90;0.47;;;15.00;99.90;;;;;;5080575;28;20215;-62
2022/12/31 09:54:01;;;;;;;5.40;0.70;;;14.90;99.90;;;;;;5073705;28;20756;-63
2022/12/31 09:56:38;;;;;;;2.47;0.70;;;14.90;99.90;;;;;;5077171;28;20268;-62
2022/12/31 09:59:16;;;;;;;1.90;0.50;;;14.90;99.90;;;;;;5075042;28;20302;-63
2022/12/31 10:02:10;;;;;;;4.60;1.00;;;14.90;99.90;;;;;;5072206;28;20199;-63
2022/12/31 10:04:45;;;;;;;3.13;0.70;;;14.90;99.90;;;;;;5074962;28;20687;-63
2022/12/31 10:07:27;;;;;;;3.20;0.97;;;15.00;99.90;;;;;;5074872;28;20206;-62
2022/12/31 10:10:17;;;;;;;1.23;0.80;;;15.00;99.90;;;;;;5075114;28;20233;-63
2022/12/31 10:13:21;;;;;;;2.93;1.13;;;15.00;99.90;;;;;;5072468;28;20218;-63
2022/12/31 10:16:18;;;;;;;3.17;0.63;;;14.90;99.90;;;;;;5071627;28;20737;-62
2022/12/31 10:19:26;;;;;;;5.20;0.97;;;15.00;99.90;;;;;;5065828;28;20205;-63
2022/12/31 10:22:21;;;;;;;3.30;0.63;;;15.00;99.90;;;;;;5074070;28;20301;-63
2022/12/31 10:25:22;;;;;;;2.17;0.80;;;14.90;99.90;;;;;;5067664;28;20606;-62
2022/12/31 10:28:24;;;;;;;0.93;0.43;;;14.90;99.90;;;;;;5070845;28;20205;-62
2022/12/31 10:31:13;;;;;;;2.33;0.90;;;15.00;99.90;;;;;;5072346;28;20217;-65
2022/12/31 10:33:50;;;;;;;2.93;0.70;;;14.90;99.90;;;;;;5073813;28;20557;-62
2022/12/31 10:36:27;;;;;;;3.77;0.87;;;15.00;99.90;;;;;;5069488;28;20620;-63
2022/12/31 10:39:22;;;;;;;3.10;0.80;;;15.00;99.90;;;;;;5063772;28;20204;-63
2022/12/31 10:41:50;;;;;;;2.67;1.07;;;15.00;99.90;;;;;;5072362;28;20205;-63
2022/12/31 10:44:47;;;;;;;0.93;0.70;;;15.10;99.90;;;;;;5074568;28;20196;-62
2022/12/31 10:47:36;;;;;;;3.00;0.83;;;15.10;99.90;;;;;;5072051;28;20203;-65
2022/12/31 10:50:42;;;;;;;6.27;1.03;;;15.30;99.90;;;;;;5066948;28;20684;-66
2022/12/31 10:53:24;;;;;;;1.47;0.60;;;15.50;99.90;;;;;;5070648;28;20216;-63
2022/12/31 10:56:32;;;;;;;4.20;1.00;;;15.60;99.90;;;;;;5073708;28;20261;-63
2022/12/31 10:59:45;;;;;;;6.37;1.30;;;15.60;99.90;;;;;;4992182;28;20716;-63
2022/12/31 11:02:15;;;;;;;1.87;0.73;;;15.60;99.90;;;;;;4993829;28;20199;-63
2022/12/31 11:05:10;;;;;;;2.80;1.43;;;15.70;99.90;;;;;;5057506;28;20211;-63
2022/12/31 11:08:06;;;;;;;2.47;0.80;;;15.70;99.90;;;;;;5068159;28;20202;-63
2022/12/31 11:10:45;;;;;;;1.77;0.97;;;15.80;99.90;;;;;;5069298;28;20707;-63
2022/12/31 11:13:24;;;;;;;1.67;0.70;;;15.80;99.90;;;;;;5070922;28;20218;-63
2022/12/31 11:15:57;;;;;;;3.87;1.20;;;15.80;99.90;;;;;;5070481;28;20534;-63
2022/12/31 11:18:45;;;;;;;1.60;0.50;;;15.90;99.90;;;;;;5067691;28;20221;-63
2022/12/31 11:21:26;;;;;;;2.73;0.80;;;16.00;99.90;;;;;;5073160;28;20208;-63
2022/12/31 11:24:17;;;;;;;4.97;1.00;;;16.00;99.90;;;;;;5075204;28;20210;-65
2022/12/31 11:26:57;;;;;;;3.17;0.63;;;16.00;99.90;;;;;;5074899;28;20604;-62
2022/12/31 11:29:47;;;;;;;1.97;0.87;;;16.10;99.90;;;;;;5075012;28;20270;-64
2022/12/31 11:32:45;;;;;;;2.37;0.53;;;16.00;99.90;;;;;;5075757;28;20317;-62
2022/12/31 11:35:46;;;;;;;2.60;0.83;;;16.00;99.90;;;;;;5076366;28;20208;-62
2022/12/31 11:38:28;;;;;;;3.20;1.03;;;16.00;99.90;;;;;;5052846;28;20212;-63
2022/12/31 11:41:10;;;;;;;3.00;0.70;;;16.00;99.90;;;;;;5076155;28;20206;-61
2022/12/31 11:43:51;;;;;;;3.57;1.93;;;16.10;99.90;;;;;;5074218;28;20193;-61
2022/12/31 11:46:49;;;;;;;3.87;0.90;;;16.00;99.90;;;;;;5076830;28;20560;-63
2022/12/31 11:49:37;;;;;;;10.70;1.20;;;15.90;99.90;;;;;;5074435;28;20292;-61
2022/12/31 11:52:23;;;;;;;4.07;1.60;;;15.90;99.90;;;;;;5057322;28;20274;-61
2022/12/31 11:54:57;;;;;;;3.87;0.90;;;15.90;99.90;;;;;;5076589;28;20698;-61
2022/12/31 11:57:35;;;;;;;2.40;0.93;;;15.60;99.90;;;;;;5075625;28;20212;-61
2022/12/31 12:00:08;;;;;;;3.50;1.13;;;15.40;99.90;;;;;;5069574;28;20205;-62
2022/12/31 12:02:38;;;;;;;2.00;0.87;;;15.20;99.90;;;;;;5070652;28;20242;-63
2022/12/31 12:05:06;;;;;;;1.40;0.70;;;15.20;99.90;;;;;;5067319;28;20263;-62
2022/12/31 12:07:37;;;;;;;2.30;1.00;;;15.10;99.90;;;;;;5069540;28;20196;-61
2022/12/31 12:10:25;;;;;;;4.23;1.17;;;15.10;99.90;;;;;;5068755;28;20627;-61
2022/12/31 12:13:23;;;;;;;4.17;0.90;;;15.20;99.90;;;;;;5069715;28;20316;-61
2022/12/31 12:15:55;;;;;;;3.77;0.70;;;15.30;99.90;;;;;;5071278;28;20969;-61
2022/12/31 12:18:25;;;;;;;8.40;1.93;;;15.30;99.90;;;;;;5068117;28;20661;-63
2022/12/31 12:20:59;;;;;;;4.30;1.03;;;15.20;99.90;;;;;;5070718;28;20196;-64
2022/12/31 12:23:26;;;;;;;3.17;0.83;;;15.30;99.90;;;;;;5071798;28;20286;-64
2022/12/31 12:25:53;;;;;;;4.37;1.20;;;15.20;99.90;;;;;;5070941;28;20279;-63
2022/12/31 12:28:26;;;;;;;2.80;1.10;;;15.20;99.90;;;;;;5070695;28;20193;-62
2022/12/31 12:31:04;;;;;;;4.97;1.10;;;15.10;99.90;;;;;;5074897;28;20212;-62
2022/12/31 12:33:42;;;;;;;2.47;0.97;;;15.10;99.90;;;;;;5069476;28;20219;-61
2022/12/31 12:36:11;;;;;;;2.47;1.07;;;15.10;99.90;;;;;;5073531;28;21792;-66
2022/12/31 12:38:39;;;;;;;4.13;1.37;;;15.00;99.90;;;;;;5069002;28;20696;-62
2022/12/31 12:41:23;;;;;;;3.17;1.00;;;15.00;99.90;;;;;;5071064;28;20362;-62
2022/12/31 12:44:13;;;;;;;4.70;1.40;;;15.10;99.90;;;;;;5066387;28;20276;-65
2022/12/31 12:46:48;;;;;;;2.10;0.83;;;15.10;99.90;;;;;;5074170;28;20322;-67
2022/12/31 12:49:44;;;;;;;6.57;1.27;;;15.10;99.90;;;;;;5072248;28;20659;-62
2022/12/31 12:52:33;;;;;;;2.63;0.83;;;15.00;99.90;;;;;;5074880;28;20580;-62
2022/12/31 12:55:07;;;;;;;4.93;0.90;;;15.10;99.90;;;;;;5072774;28;20207;-63
2022/12/31 12:57:59;;;;;;;4.83;0.90;;;15.20;99.90;;;;;;5073867;28;20642;-63
2022/12/31 13:01:06;;;;;;;6.60;1.40;;;15.20;99.90;;;;;;5074666;28;20233;-64
2022/12/31 13:04:00;;;;;;;2.90;1.40;;;15.30;99.90;;;;;;5069929;28;20445;-63
2022/12/31 13:07:07;;;;;;;4.47;0.90;;;15.30;99.90;;;;;;5069912;28;20206;-63
2022/12/31 13:10:06;;;;;;;5.57;0.93;;;15.20;99.90;;;;;;5061659;28;20893;-64
2022/12/31 13:12:42;;;;;;;4.10;1.10;;;15.30;99.90;;;;;;5072918;28;20222;-63
2022/12/31 13:15:40;;;;;;;1.93;1.10;;;15.30;99.90;;;;;;5073648;28;20208;-63
2022/12/31 13:18:41;;;;;;;3.53;1.10;;;15.20;99.90;;;;;;5073021;28;20209;-63
2022/12/31 13:21:34;;;;;;;5.70;1.20;;;15.10;99.90;;;;;;5073543;28;20204;-66
2022/12/31 13:24:35;;;;;;;6.43;1.47;;;15.20;99.90;;;;;;5072589;28;20270;-63
2022/12/31 13:27:14;;;;;;;3.97;1.47;;;15.20;99.90;;;;;;5071739;28;20880;-63
2022/12/31 13:29:43;;;;;;;3.37;1.53;;;15.20;99.90;;;;;;5071305;28;20307;-63
2022/12/31 13:32:16;;;;;;;3.83;1.30;;;15.30;99.90;;;;;;5071971;28;20237;-64
2022/12/31 13:34:47;;;;;;;5.63;1.17;;;15.30;99.90;;;;;;5069843;28;20204;-64
2022/12/31 13:37:26;;;;;;;2.37;0.87;;;15.30;99.90;;;;;;5069888;28;20205;-65
2022/12/31 13:40:06;;;;;;;5.57;1.10;;;15.20;99.90;;;;;;5070885;28;20207;-63